createdAt,value
2022-10-11T00:02:14.657Z,99.90
2022-10-11T00:04:43.767Z,99.90
2022-10-11T00:07:11.873Z,99.90
2022-10-11T00:09:39.854Z,99.90
2022-10-11T00:12:08.025Z,99.90
2022-10-11T00:14:36.314Z,99.90
2022-10-11T00:17:04.231Z,99.90
2022-10-11T00:19:32.792Z,99.90
2022-10-11T00:22:01.943Z,99.90
2022-10-11T00:24:29.752Z,99.90
2022-10-11T00:26:57.574Z,99.90
2022-10-11T00:29:25.365Z,99.90
2022-10-11T00:31:53.156Z,99.90
2022-10-11T00:34:20.955Z,99.90
2022-10-11T00:36:49.038Z,99.90
2022-10-11T00:39:18.273Z,99.90
2022-10-11T00:41:47.758Z,99.90
2022-10-11T00:44:17.735Z,99.90
2022-10-11T00:46:54.984Z,99.90
2022-10-11T00:49:31.181Z,99.90
2022-10-11T00:52:03.500Z,99.90
2022-10-11T00:54:37.131Z,99.90
2022-10-11T00:57:09.038Z,99.90
2022-10-11T00:59:40.729Z,99.90
2022-10-11T01:02:09.690Z,99.90
2022-10-11T01:04:37.552Z,99.90
2022-10-11T01:07:05.441Z,99.90
2022-10-11T01:09:35.004Z,99.90
2022-10-11T01:12:05.744Z,99.90
2022-10-11T01:15:01.797Z,99.90
2022-10-11T01:17:36.775Z,99.90
2022-10-11T01:20:31.922Z,99.90
2022-10-11T01:23:25.664Z,99.90
2022-10-11T01:26:10.822Z,99.90
2022-10-11T01:28:50.274Z,99.90
2022-10-11T01:31:26.378Z,99.90
2022-10-11T01:33:56.644Z,99.90
2022-10-11T01:36:31.589Z,99.90
2022-10-11T01:39:04.362Z,99.90
2022-10-11T01:41:38.168Z,99.90
2022-10-11T01:44:07.558Z,99.90
2022-10-11T01:46:37.930Z,99.90
2022-10-11T01:49:06.777Z,99.90
2022-10-11T01:52:30.052Z,99.90
2022-10-11T01:55:12.265Z,99.90
2022-10-11T01:57:54.364Z,99.90
2022-10-11T02:00:24.052Z,99.90
2022-10-11T02:03:10.120Z,99.90
2022-10-11T02:05:49.074Z,99.90
2022-10-11T02:08:22.574Z,99.90
2022-10-11T02:10:56.906Z,99.90
2022-10-11T02:13:29.507Z,99.90
2022-10-11T02:16:02.225Z,99.90
2022-10-11T02:18:36.157Z,99.90
2022-10-11T02:21:08.613Z,99.90
2022-10-11T02:23:41.120Z,99.90
2022-10-11T02:26:11.512Z,99.90
2022-10-11T02:28:42.665Z,99.90
2022-10-11T02:31:12.067Z,99.90
2022-10-11T02:33:45.923Z,99.90
2022-10-11T02:36:21.959Z,99.90
2022-10-11T02:38:54.140Z,99.90
2022-10-11T02:41:28.266Z,99.90
2022-10-11T02:44:00.017Z,99.90
2022-10-11T02:46:30.446Z,99.90
2022-10-11T02:49:00.676Z,99.90
2022-10-11T02:51:31.551Z,99.90
2022-10-11T02:53:59.402Z,99.90
2022-10-11T02:56:27.321Z,99.90
2022-10-11T02:58:55.090Z,99.90
2022-10-11T03:01:22.944Z,99.90
2022-10-11T03:03:50.794Z,99.90
2022-10-11T03:06:19.986Z,99.90
2022-10-11T03:08:47.792Z,99.90
2022-10-11T03:11:15.627Z,99.90
2022-10-11T03:13:43.401Z,99.90
2022-10-11T03:16:11.499Z,99.90
2022-10-11T03:18:39.365Z,99.90
2022-10-11T03:21:07.206Z,99.90
2022-10-11T03:23:36.498Z,99.90
2022-10-11T03:26:04.760Z,99.90
2022-10-11T03:28:33.024Z,99.90
2022-10-11T03:31:00.902Z,99.90
2022-10-11T03:33:28.670Z,99.90
2022-10-11T03:35:56.490Z,99.90
2022-10-11T03:38:24.283Z,99.90
2022-10-11T03:40:53.421Z,99.90
2022-10-11T03:43:21.185Z,99.90
2022-10-11T03:45:49.027Z,99.90
2022-10-11T03:48:16.833Z,99.90
2022-10-11T03:50:44.618Z,99.90
2022-10-11T03:53:12.589Z,99.90
2022-10-11T03:55:41.312Z,99.90
2022-10-11T03:58:10.496Z,99.90
2022-10-11T04:00:38.501Z,99.90
2022-10-11T04:03:06.414Z,99.90
2022-10-11T04:05:34.196Z,99.90
2022-10-11T04:08:02.007Z,99.90
2022-10-11T04:10:31.029Z,99.90
2022-10-11T04:12:58.970Z,99.90
2022-10-11T04:15:28.101Z,99.90
2022-10-11T04:17:55.937Z,99.90
2022-10-11T04:20:23.803Z,99.90
2022-10-11T04:22:51.625Z,99.90
2022-10-11T04:25:19.537Z,99.90
2022-10-11T04:27:47.397Z,99.90
2022-10-11T04:30:16.178Z,99.90
2022-10-11T04:32:45.454Z,99.90
2022-10-11T04:35:13.301Z,99.90
2022-10-11T04:37:41.185Z,99.90
2022-10-11T04:40:10.178Z,99.90
2022-10-11T04:42:38.006Z,99.90
2022-10-11T04:45:06.867Z,99.90
2022-10-11T04:47:34.686Z,99.90
2022-10-11T04:50:03.985Z,99.90
2022-10-11T04:52:31.784Z,99.90
2022-10-11T04:55:01.190Z,99.90
2022-10-11T04:57:28.996Z,99.90
2022-10-11T04:59:56.754Z,99.90
2022-10-11T05:02:24.581Z,99.90
2022-10-11T05:04:52.435Z,99.90
2022-10-11T05:07:21.543Z,99.90
2022-10-11T05:09:49.305Z,99.90
2022-10-11T05:12:17.097Z,99.90
2022-10-11T05:14:44.889Z,99.90
2022-10-11T05:17:12.713Z,99.90
2022-10-11T05:19:40.496Z,99.90
2022-10-11T05:22:08.271Z,99.90
2022-10-11T05:24:37.686Z,99.90
2022-10-11T05:27:05.462Z,99.90
2022-10-11T05:29:33.292Z,99.90
2022-10-11T05:32:01.130Z,99.90
2022-10-11T05:34:29.037Z,99.90
2022-10-11T05:36:57.418Z,99.90
2022-10-11T05:39:25.250Z,99.90
2022-10-11T05:41:54.532Z,99.90
2022-10-11T05:44:22.329Z,99.90
2022-10-11T05:46:50.116Z,99.90
2022-10-11T05:49:17.890Z,99.90
2022-10-11T05:51:45.746Z,99.90
2022-10-11T05:54:13.520Z,99.90
2022-10-11T05:56:41.346Z,99.90
2022-10-11T05:59:10.520Z,99.90
2022-10-11T06:01:38.465Z,99.90
2022-10-11T06:04:06.702Z,99.90
2022-10-11T06:06:34.823Z,99.90
2022-10-11T06:09:02.690Z,99.90
2022-10-11T06:11:30.541Z,99.90
2022-10-11T06:13:59.149Z,99.90
2022-10-11T06:16:28.487Z,99.90
2022-10-11T06:18:57.290Z,99.90
2022-10-11T06:21:25.745Z,99.90
2022-10-11T06:23:59.893Z,99.90
2022-10-11T06:26:28.932Z,99.90
2022-10-11T06:28:56.796Z,99.90
2022-10-11T06:31:24.687Z,99.90
2022-10-11T06:33:53.808Z,99.90
2022-10-11T06:36:21.601Z,99.90
2022-10-11T06:38:52.466Z,99.90
2022-10-11T06:41:23.337Z,99.90
2022-10-11T06:43:51.370Z,99.90
2022-10-11T06:46:20.247Z,99.90
2022-10-11T06:48:49.260Z,99.90
2022-10-11T06:51:20.657Z,99.90
2022-10-11T06:53:50.640Z,99.90
2022-10-11T06:56:19.446Z,99.90
2022-10-11T06:58:47.312Z,99.90
2022-10-11T07:01:18.963Z,99.90
2022-10-11T07:03:47.239Z,99.90
2022-10-11T07:06:17.375Z,99.90
2022-10-11T07:08:46.779Z,99.90
2022-10-11T07:11:16.014Z,99.90
2022-10-11T07:13:43.820Z,99.90
2022-10-11T07:16:13.256Z,99.90
2022-10-11T07:18:41.073Z,99.90
2022-10-11T07:21:11.910Z,99.90
2022-10-11T07:23:39.680Z,99.90
2022-10-11T07:26:10.892Z,99.90
2022-10-11T07:28:39.307Z,99.90
2022-10-11T07:31:08.255Z,99.90
2022-10-11T07:33:36.132Z,99.90
2022-10-11T07:36:05.096Z,99.90
2022-10-11T07:38:33.077Z,99.90
2022-10-11T07:41:05.273Z,99.90
2022-10-11T07:43:34.501Z,99.90
2022-10-11T07:46:04.647Z,99.90
2022-10-11T07:48:33.680Z,99.90
2022-10-11T07:51:06.775Z,99.90
2022-10-11T07:53:39.665Z,99.90
2022-10-11T07:56:08.738Z,99.90
2022-10-11T07:58:38.168Z,99.90
2022-10-11T08:01:06.722Z,99.90
2022-10-11T08:03:34.556Z,99.90
2022-10-11T08:06:03.184Z,99.90
2022-10-11T08:08:31.501Z,99.90
2022-10-11T08:11:29.707Z,99.90
2022-10-11T08:14:00.368Z,99.90
2022-10-11T08:16:28.395Z,99.90
2022-10-11T08:18:56.967Z,99.90
2022-10-11T08:21:26.685Z,99.90
2022-10-11T08:23:54.497Z,99.90
2022-10-11T08:26:22.969Z,99.90
2022-10-11T08:28:50.834Z,99.90
2022-10-11T08:31:19.991Z,99.90
2022-10-11T08:33:47.874Z,99.90
2022-10-11T08:36:15.757Z,99.90
2022-10-11T08:38:43.540Z,99.90
2022-10-11T08:41:30.673Z,99.90
2022-10-11T08:44:20.962Z,99.90
2022-10-11T08:46:58.181Z,99.90
2022-10-11T08:49:31.216Z,99.90
2022-10-11T08:52:04.475Z,99.90
2022-10-11T08:54:42.971Z,99.90
2022-10-11T08:57:15.116Z,99.90
2022-10-11T08:59:46.719Z,99.90
2022-10-11T09:02:25.121Z,99.90
2022-10-11T09:04:54.744Z,99.90
2022-10-11T09:07:32.600Z,99.90
2022-10-11T09:10:15.413Z,99.90
2022-10-11T09:12:50.208Z,99.90
2022-10-11T09:15:26.143Z,99.90
2022-10-11T09:18:15.762Z,99.90
2022-10-11T09:21:08.205Z,99.90
2022-10-11T09:23:49.253Z,99.90
2022-10-11T09:26:22.925Z,99.90
2022-10-11T09:29:01.433Z,99.90
2022-10-11T09:31:30.587Z,99.90
2022-10-11T09:34:06.733Z,99.90
2022-10-11T09:36:42.205Z,99.90
2022-10-11T09:39:25.761Z,99.90
2022-10-11T09:41:57.813Z,99.90
2022-10-11T09:44:28.497Z,99.90
2022-10-11T09:46:57.786Z,99.90
2022-10-11T09:49:41.264Z,99.90
2022-10-11T09:52:16.451Z,99.90
2022-10-11T09:54:46.742Z,99.90
2022-10-11T09:57:23.632Z,99.90
2022-10-11T10:00:05.587Z,99.90
2022-10-11T10:02:41.667Z,99.90
2022-10-11T10:05:20.990Z,99.90
2022-10-11T10:08:24.396Z,99.90
2022-10-11T10:11:01.106Z,99.90
2022-10-11T10:13:41.942Z,99.90
2022-10-11T10:16:21.332Z,99.90
2022-10-11T10:18:53.245Z,99.90
2022-10-11T10:21:29.219Z,99.90
2022-10-11T10:23:59.970Z,99.90
2022-10-11T10:26:27.923Z,99.90
2022-10-11T10:28:59.429Z,99.90
2022-10-11T10:31:44.463Z,99.90
2022-10-11T10:34:26.768Z,99.90
2022-10-11T10:37:00.054Z,99.90
2022-10-11T10:39:34.976Z,99.50
2022-10-11T10:42:06.143Z,97.30
2022-10-11T10:44:33.984Z,97.50
2022-10-11T10:47:11.430Z,96.30
2022-10-11T10:49:54.419Z,95.00
2022-10-11T10:52:48.667Z,95.00
2022-10-11T10:55:26.497Z,92.00
2022-10-11T10:58:07.158Z,91.40
2022-10-11T11:00:42.407Z,90.20
2022-10-11T11:03:21.733Z,91.80
2022-10-11T11:05:58.506Z,88.70
2022-10-11T11:08:42.385Z,88.10
2022-10-11T11:11:31.570Z,87.50
2022-10-11T11:14:04.228Z,86.10
2022-10-11T11:16:38.476Z,84.90
2022-10-11T11:19:26.723Z,84.70
2022-10-11T11:22:01.524Z,85.40
2022-10-11T11:24:40.920Z,83.90
2022-10-11T11:27:20.187Z,82.80
2022-10-11T11:29:55.674Z,84.60
2022-10-11T11:32:34.299Z,83.70
2022-10-11T11:35:04.722Z,83.70
2022-10-11T11:37:36.739Z,81.70
2022-10-11T11:40:14.769Z,81.40
2022-10-11T11:42:47.767Z,82.40
2022-10-11T11:45:22.203Z,81.70
2022-10-11T11:47:55.932Z,82.30
2022-10-11T11:50:27.342Z,82.50
2022-10-11T11:52:59.005Z,81.90
2022-10-11T11:55:33.776Z,82.70
2022-10-11T11:58:24.667Z,82.80
2022-10-11T12:01:03.749Z,81.30
2022-10-11T12:03:39.293Z,81.70
2022-10-11T12:06:27.050Z,81.20
2022-10-11T12:09:08.785Z,80.70
2022-10-11T12:11:51.267Z,82.30
2022-10-11T12:14:27.543Z,84.30
2022-10-11T12:17:20.478Z,86.10
2022-10-11T12:20:17.252Z,88.00
2022-10-11T12:23:00.100Z,87.80
2022-10-11T12:25:46.496Z,88.70
2022-10-11T12:28:54.870Z,90.30
2022-10-11T12:31:25.659Z,89.20
2022-10-11T12:34:06.456Z,89.80
2022-10-11T12:36:40.592Z,86.30
2022-10-11T12:39:43.944Z,87.40
2022-10-11T12:42:29.391Z,86.30
2022-10-11T12:45:33.621Z,85.80
2022-10-11T12:48:27.427Z,85.70
2022-10-11T12:51:10.221Z,84.80
2022-10-11T12:54:25.950Z,83.70
2022-10-11T12:57:12.936Z,84.50
2022-10-11T12:59:45.042Z,85.70
2022-10-11T13:02:28.730Z,84.80
2022-10-11T13:05:08.796Z,84.80
2022-10-11T13:07:37.050Z,83.70
2022-10-11T13:10:06.500Z,84.10
2022-10-11T13:12:41.713Z,84.20
2022-10-11T13:15:15.884Z,83.60
2022-10-11T13:17:44.300Z,83.60
2022-10-11T13:20:20.123Z,84.30
2022-10-11T13:22:49.700Z,83.70
2022-10-11T13:25:19.700Z,83.90
2022-10-11T13:27:48.200Z,84.30
2022-10-11T13:30:20.543Z,85.10
2022-10-11T13:32:48.925Z,84.60
2022-10-11T13:35:24.765Z,83.20
2022-10-11T13:37:52.841Z,84.70
2022-10-11T13:40:22.269Z,85.30
2022-10-11T13:42:51.994Z,84.90
2022-10-11T13:45:22.364Z,85.60
2022-10-11T13:47:51.473Z,85.10
2022-10-11T13:50:31.602Z,84.30
2022-10-11T13:53:01.498Z,83.50
2022-10-11T13:55:32.794Z,84.60
2022-10-11T13:58:02.704Z,85.70
2022-10-11T14:00:33.434Z,86.40
2022-10-11T14:03:04.795Z,88.10
2022-10-11T14:05:37.574Z,88.90
2022-10-11T14:08:08.444Z,89.80
2022-10-11T14:10:36.526Z,90.60
2022-10-11T14:13:22.580Z,91.00
2022-10-11T14:16:00.395Z,90.30
2022-10-11T14:18:42.769Z,90.60
2022-10-11T14:21:33.016Z,90.70
2022-10-11T14:24:02.681Z,90.50
2022-10-11T14:26:35.337Z,89.80
2022-10-11T14:29:07.532Z,88.20
2022-10-11T14:31:40.568Z,88.90
2022-10-11T14:34:13.348Z,89.50
2022-10-11T14:36:42.459Z,89.10
2022-10-11T14:39:14.839Z,89.40
2022-10-11T14:41:42.674Z,89.70
2022-10-11T14:44:10.620Z,89.90
2022-10-11T14:46:40.759Z,90.30
2022-10-11T14:49:14.427Z,90.50
2022-10-11T14:51:44.512Z,91.70
2022-10-11T14:54:12.477Z,91.50
2022-10-11T14:56:40.446Z,91.00
2022-10-11T14:59:08.367Z,91.30
2022-10-11T15:01:36.420Z,91.40
2022-10-11T15:04:04.261Z,91.10
2022-10-11T15:06:35.547Z,91.00
2022-10-11T15:09:04.857Z,91.40
2022-10-11T15:11:33.103Z,91.20
2022-10-11T15:14:00.898Z,91.80
2022-10-11T15:16:28.711Z,91.80
2022-10-11T15:18:56.596Z,92.10
2022-10-11T15:21:27.093Z,91.30
2022-10-11T15:23:55.911Z,91.10
2022-10-11T15:26:26.808Z,90.80
2022-10-11T15:28:56.127Z,90.50
2022-10-11T15:31:24.456Z,90.40
2022-10-11T15:33:52.430Z,90.60
2022-10-11T15:36:22.397Z,90.00
2022-10-11T15:38:50.540Z,90.70
2022-10-11T15:41:20.459Z,90.90
2022-10-11T15:43:50.143Z,91.20
2022-10-11T15:46:21.997Z,91.30
2022-10-11T15:48:50.494Z,90.80
2022-10-11T15:51:18.774Z,91.60
2022-10-11T15:53:46.780Z,91.50
2022-10-11T15:56:18.582Z,92.20
2022-10-11T15:58:46.893Z,92.00
2022-10-11T16:01:18.699Z,92.40
2022-10-11T16:03:47.416Z,93.00
2022-10-11T16:06:15.227Z,92.90
2022-10-11T16:08:42.999Z,93.50
2022-10-11T16:11:13.583Z,94.40
2022-10-11T16:13:41.636Z,93.50
2022-10-11T16:16:10.746Z,94.00
2022-10-11T16:18:40.286Z,93.20
2022-10-11T16:21:10.323Z,93.80
2022-10-11T16:23:38.660Z,93.40
2022-10-11T16:26:09.762Z,94.60
2022-10-11T16:28:38.077Z,94.30
2022-10-11T16:31:09.312Z,94.40
2022-10-11T16:33:45.299Z,94.50
2022-10-11T16:36:36.283Z,94.20
2022-10-11T16:39:07.991Z,94.70
2022-10-11T16:41:35.816Z,95.50
2022-10-11T16:44:04.946Z,94.50
2022-10-11T16:46:33.576Z,95.60
2022-10-11T16:49:01.375Z,95.40
2022-10-11T16:51:30.547Z,95.90
2022-10-11T16:53:58.510Z,96.00
2022-10-11T16:56:26.365Z,96.00
2022-10-11T16:58:54.841Z,95.90
2022-10-11T17:01:23.020Z,95.80
2022-10-11T17:03:51.601Z,95.80
2022-10-11T17:06:20.165Z,95.90
2022-10-11T17:08:49.419Z,95.20
2022-10-11T17:11:18.034Z,95.70
2022-10-11T17:13:46.141Z,96.40
2022-10-11T17:16:13.998Z,96.50
2022-10-11T17:18:41.756Z,96.80
2022-10-11T17:21:12.837Z,96.90
2022-10-11T17:23:46.483Z,96.70
2022-10-11T17:26:19.071Z,96.70
2022-10-11T17:28:47.319Z,96.90
2022-10-11T17:31:15.243Z,96.90
2022-10-11T17:33:43.280Z,97.60
2022-10-11T17:36:17.636Z,97.60
2022-10-11T17:38:45.511Z,98.70
2022-10-11T17:41:13.564Z,98.90
2022-10-11T17:43:42.811Z,99.00
2022-10-11T17:46:12.907Z,99.40
2022-10-11T17:48:41.129Z,99.90
2022-10-11T17:51:10.283Z,99.90
2022-10-11T17:53:38.602Z,99.40
2022-10-11T17:56:08.082Z,99.70
2022-10-11T17:58:35.952Z,99.70
2022-10-11T18:01:07.335Z,99.90
2022-10-11T18:03:35.645Z,99.90
2022-10-11T18:06:04.688Z,99.90
2022-10-11T18:08:36.420Z,99.90
2022-10-11T18:11:11.508Z,99.90
2022-10-11T18:13:42.393Z,99.90
2022-10-11T18:16:11.952Z,99.90
2022-10-11T18:18:40.404Z,99.90
2022-10-11T18:21:08.286Z,99.90
2022-10-11T18:23:37.271Z,99.90
2022-10-11T18:26:10.732Z,99.90
2022-10-11T18:28:38.600Z,99.90
2022-10-11T18:31:12.566Z,99.90
2022-10-11T18:33:45.386Z,99.90
2022-10-11T18:36:14.925Z,99.90
2022-10-11T18:38:46.289Z,99.90
2022-10-11T18:41:16.755Z,99.90
2022-10-11T18:43:49.016Z,99.90
2022-10-11T18:46:16.910Z,99.90
2022-10-11T18:48:47.800Z,99.90
2022-10-11T18:51:19.212Z,99.90
2022-10-11T18:53:47.721Z,99.90
2022-10-11T18:56:18.003Z,99.90
2022-10-11T18:58:45.930Z,99.90
2022-10-11T19:01:16.878Z,99.90
2022-10-11T19:03:47.303Z,99.90
2022-10-11T19:06:18.564Z,99.90
2022-10-11T19:08:47.144Z,99.90
2022-10-11T19:11:16.890Z,99.90
2022-10-11T19:13:45.013Z,99.90
2022-10-11T19:16:15.113Z,99.90
2022-10-11T19:18:44.440Z,99.90
2022-10-11T19:21:14.447Z,99.90
2022-10-11T19:23:44.293Z,99.90
2022-10-11T19:26:16.006Z,99.90
2022-10-11T19:28:44.254Z,99.90
2022-10-11T19:31:16.713Z,99.90
2022-10-11T19:33:45.430Z,99.90
2022-10-11T19:36:15.228Z,99.90
2022-10-11T19:38:46.130Z,99.90
2022-10-11T19:41:15.566Z,99.90
2022-10-11T19:43:43.422Z,99.90
2022-10-11T19:46:20.158Z,99.90
2022-10-11T19:48:55.559Z,99.90
2022-10-11T19:51:26.620Z,99.90
2022-10-11T19:53:57.254Z,99.90
2022-10-11T19:56:26.217Z,99.90
2022-10-11T19:58:54.483Z,99.90
2022-10-11T20:01:24.285Z,99.90
2022-10-11T20:03:54.409Z,99.90
2022-10-11T20:06:25.046Z,99.90
2022-10-11T20:09:16.505Z,99.90
2022-10-11T20:11:41.400Z,99.90
2022-10-11T20:14:09.676Z,99.90
2022-10-11T20:16:37.488Z,99.90
2022-10-11T20:19:06.173Z,99.90
2022-10-11T20:21:35.651Z,99.90
2022-10-11T20:24:04.545Z,99.90
2022-10-11T20:26:33.148Z,99.90
2022-10-11T20:29:01.063Z,99.90
2022-10-11T20:31:32.017Z,99.90
2022-10-11T20:34:02.203Z,99.90
2022-10-11T20:36:31.059Z,99.90
2022-10-11T20:39:00.890Z,99.90
2022-10-11T20:41:31.629Z,99.90
2022-10-11T20:44:00.607Z,99.90
2022-10-11T20:46:31.378Z,99.90
2022-10-11T20:49:02.111Z,99.90
2022-10-11T20:51:31.140Z,99.90
2022-10-11T20:54:01.939Z,99.90
2022-10-11T20:56:30.757Z,99.90
2022-10-11T20:58:59.382Z,99.90
2022-10-11T21:01:29.272Z,99.90
2022-10-11T21:03:58.809Z,99.90
2022-10-11T21:06:26.924Z,99.90
2022-10-11T21:08:56.089Z,99.90
2022-10-11T21:11:27.505Z,99.90
2022-10-11T21:13:56.561Z,99.90
2022-10-11T21:16:24.614Z,99.90
2022-10-11T21:18:53.519Z,99.90
2022-10-11T21:21:23.357Z,99.90
2022-10-11T21:23:53.878Z,99.90
2022-10-11T21:26:22.063Z,99.90
2022-10-11T21:28:51.604Z,99.90
2022-10-11T21:31:21.372Z,99.90
2022-10-11T21:33:49.571Z,99.90
2022-10-11T21:36:19.297Z,99.90
2022-10-11T21:38:47.961Z,99.90
2022-10-11T21:41:17.666Z,99.90
2022-10-11T21:43:45.763Z,99.90
2022-10-11T21:46:19.526Z,99.90
2022-10-11T21:48:47.912Z,99.90
2022-10-11T21:51:18.050Z,99.90
2022-10-11T21:53:45.953Z,99.90
2022-10-11T21:56:13.891Z,99.90
2022-10-11T21:58:41.683Z,99.90
2022-10-11T22:01:11.246Z,99.90
2022-10-11T22:03:40.392Z,99.90
2022-10-11T22:06:08.233Z,99.90
2022-10-11T22:08:36.423Z,99.90
2022-10-11T22:11:04.273Z,99.90
2022-10-11T22:13:34.040Z,99.90
2022-10-11T22:16:04.495Z,99.90
2022-10-11T22:18:33.792Z,99.90
2022-10-11T22:21:08.371Z,99.90
2022-10-11T22:23:36.662Z,99.90
2022-10-11T22:26:05.408Z,99.90
2022-10-11T22:28:33.334Z,99.90
2022-10-11T22:31:01.557Z,99.90
2022-10-11T22:33:29.515Z,99.90
2022-10-11T22:35:58.534Z,99.90
2022-10-11T22:38:27.850Z,99.90
2022-10-11T22:40:58.826Z,99.90
2022-10-11T22:43:26.940Z,99.90
2022-10-11T22:45:54.708Z,99.90
2022-10-11T22:48:22.498Z,99.90
2022-10-11T22:50:50.323Z,99.90
2022-10-11T22:53:18.309Z,99.90
2022-10-11T22:55:48.226Z,99.90
2022-10-11T22:58:16.119Z,99.90
2022-10-11T23:00:44.389Z,99.90
2022-10-11T23:03:13.793Z,99.90
2022-10-11T23:05:41.603Z,99.90
2022-10-11T23:08:10.260Z,99.90
2022-10-11T23:10:39.385Z,99.90
2022-10-11T23:13:08.527Z,99.90
2022-10-11T23:15:40.141Z,99.90
2022-10-11T23:18:07.989Z,99.90
2022-10-11T23:20:35.743Z,99.90
2022-10-11T23:23:03.507Z,99.90
2022-10-11T23:25:31.275Z,99.90
2022-10-11T23:28:00.968Z,99.90
2022-10-11T23:30:30.826Z,99.90
2022-10-11T23:33:02.353Z,99.90
2022-10-11T23:35:30.569Z,99.90
2022-10-11T23:37:58.314Z,99.90
2022-10-11T23:40:26.100Z,99.90
2022-10-11T23:42:53.845Z,99.90
2022-10-11T23:45:21.603Z,99.90
2022-10-11T23:47:50.714Z,99.90
2022-10-11T23:50:18.751Z,99.90
2022-10-11T23:52:46.534Z,99.90
2022-10-11T23:55:14.345Z,99.90
2022-10-11T23:57:42.095Z,99.90
